Time;durP1;ratioP1;P1;durP2;ratioP2;P2;SDS_P1;SDS_P2;PMS_P1;PMS_P2;Temp;Humidity;BMP_temperature;BMP_pressure;BME280_temperature;BME280_humidity;BME280_pressure;Samples;Min_cycle;Max_cycle;Signal;HPM_P1;HPM_P2
2022/06/13 00:02:11;;;;;;;;;;;14.60;97.70;;;;;;5125880;27;19968;-76
2022/06/13 00:04:37;;;;;;;;;;;14.60;98.50;;;;;;5122944;27;19927;-80
2022/06/13 00:07:03;;;;;;;;;;;14.50;65.70;;;;;;5143215;27;19926;-77
2022/06/13 00:09:28;;;;;;;;;;;14.40;99.90;;;;;;5119211;27;19920;-76
2022/06/13 00:11:54;;;;;;;;;;;14.60;99.90;;;;;;5133242;27;19927;-78
2022/06/13 00:14:20;;;;;;;;;;;14.40;95.40;;;;;;5148691;27;19927;-76
2022/06/13 00:16:46;;;;;;;;;;;14.50;99.90;;;;;;5149474;27;20445;-76
2022/06/13 00:19:11;;;;;;;;;;;14.30;99.90;;;;;;5132889;27;19950;-78
2022/06/13 00:21:37;;;;;;;;;;;14.30;99.90;;;;;;5148894;27;19927;-85
2022/06/13 00:24:04;;;;;;;;;;;14.30;99.90;;;;;;5150390;27;19926;-80
2022/06/13 00:26:31;;;;;;;;;;;14.30;99.90;;;;;;5141553;27;20352;-76
2022/06/13 00:28:57;;;;;;;;;;;14.30;99.90;;;;;;5148085;27;19922;-81
2022/06/13 00:31:23;;;;;;;;;;;14.40;99.90;;;;;;5154341;27;19972;-78
2022/06/13 00:33:49;;;;;;;;;;;14.30;99.90;;;;;;5118970;27;20042;-76
2022/06/13 00:36:15;;;;;;;;;;;14.40;99.90;;;;;;5136531;27;20309;-76
2022/06/13 00:38:41;;;;;;;;;;;14.30;99.90;;;;;;5147049;27;20369;-76
2022/06/13 00:41:08;;;;;;;;;;;14.20;99.90;;;;;;5133926;27;19966;-76
2022/06/13 00:43:34;;;;;;;;;;;14.20;99.90;;;;;;5134755;27;19931;-76
2022/06/13 00:45:59;;;;;;;;;;;14.30;99.90;;;;;;5141866;27;19919;-76
2022/06/13 00:48:27;;;;;;;;;;;14.20;99.90;;;;;;5152191;27;19926;-76
2022/06/13 00:50:55;;;;;;;;;;;14.20;99.90;;;;;;5106342;27;19942;-75
2022/06/13 00:53:22;;;;;;;;;;;14.20;99.90;;;;;;5145540;27;20080;-76
2022/06/13 00:55:52;;;;;;;;;;;14.20;99.90;;;;;;5139907;27;19919;-75
2022/06/13 00:58:18;;;;;;;;;;;14.20;99.90;;;;;;5141621;27;19923;-75
2022/06/13 01:00:47;;;;;;;;;;;14.20;99.90;;;;;;5142872;27;20006;-76
2022/06/13 01:03:13;;;;;;;;;;;14.20;99.90;;;;;;5134080;27;19926;-76
2022/06/13 01:05:40;;;;;;;;;;;14.30;99.90;;;;;;5140480;27;19919;-79
2022/06/13 01:08:07;;;;;;;;;;;14.20;99.90;;;;;;5135601;27;19915;-76
2022/06/13 01:13:18;;;;;;;;;;;14.20;99.90;;;;;;5115902;27;19925;-76
2022/06/13 01:15:53;;;;;;;;;;;14.10;99.90;;;;;;5135622;27;19919;-76
2022/06/13 01:18:19;;;;;;;;;;;14.10;99.90;;;;;;5148440;27;19919;-76
2022/06/13 01:20:54;;;;;;;;;;;14.10;99.90;;;;;;5129234;27;19919;-76
2022/06/13 01:23:25;;;;;;;;;;;14.10;99.90;;;;;;5116262;27;19958;-78
2022/06/13 01:26:14;;;;;;;;;;;14.10;99.90;;;;;;5131721;27;19919;-76
2022/06/13 01:28:51;;;;;;;;;;;14.10;99.90;;;;;;5143494;27;19919;-76
2022/06/13 01:31:21;;;;;;;;;;;14.10;99.90;;;;;;5133116;27;19923;-76
2022/06/13 01:33:47;;;;;;;;;;;14.00;99.90;;;;;;5135311;27;20019;-76
2022/06/13 01:36:21;;;;;;;;;;;14.00;99.90;;;;;;5147323;27;20033;-76
2022/06/13 01:38:47;;;;;;;;;;;14.00;99.90;;;;;;5143646;27;19935;-78
2022/06/13 01:41:35;;;;;;;;;;;14.00;99.90;;;;;;5138377;27;19919;-76
2022/06/13 01:44:13;;;;;;;;;;;13.90;99.90;;;;;;5129558;27;19984;-76
2022/06/13 01:46:55;;;;;;;;;;;13.90;99.90;;;;;;5148919;27;19918;-75
2022/06/13 01:49:23;;;;;;;;;;;13.90;99.90;;;;;;5137375;27;19919;-76
2022/06/13 01:51:48;;;;;;;;;;;13.90;99.90;;;;;;5139130;27;20103;-75
2022/06/13 01:54:14;;;;;;;;;;;14.00;99.90;;;;;;5126421;27;19994;-75
2022/06/13 01:56:44;;;;;;;;;;;14.00;99.90;;;;;;5133585;27;19925;-75
2022/06/13 01:59:10;;;;;;;;;;;14.00;99.90;;;;;;5132939;27;19969;-75
2022/06/13 02:01:50;;;;;;;;;;;14.00;99.90;;;;;;5139407;27;20149;-75
2022/06/13 02:04:22;;;;;;;;;;;14.10;99.90;;;;;;5139681;27;20279;-74
2022/06/13 02:06:51;;;;;;;;;;;14.00;99.90;;;;;;5147325;27;19966;-74
2022/06/13 02:09:20;;;;;;;;;;;14.10;99.90;;;;;;5147751;27;19952;-76
2022/06/13 02:11:50;;;;;;;;;;;14.20;99.90;;;;;;5141361;27;19919;-75
2022/06/13 02:14:32;;;;;;;;;;;14.10;99.90;;;;;;5139038;27;20388;-74
2022/06/13 02:17:17;;;;;;;;;;;14.10;99.90;;;;;;5131577;27;19919;-75
2022/06/13 02:19:48;;;;;;;;;;;14.00;99.90;;;;;;5132482;27;19938;-81
2022/06/13 02:22:33;;;;;;;;;;;14.00;99.90;;;;;;5146186;27;19930;-75
2022/06/13 02:25:04;;;;;;;;;;;13.90;99.90;;;;;;5136538;27;20533;-75
2022/06/13 02:27:32;;;;;;;;;;;13.90;99.90;;;;;;5148134;27;19919;-75
2022/06/13 02:30:01;;;;;;;;;;;13.90;99.90;;;;;;5136356;27;20341;-75
2022/06/13 02:32:30;;;;;;;;;;;13.80;99.90;;;;;;5146352;27;19930;-75
2022/06/13 02:35:00;;;;;;;;;;;13.80;99.90;;;;;;5147251;27;19966;-75
2022/06/13 02:37:38;;;;;;;;;;;13.80;99.90;;;;;;5131171;27;19919;-76
2022/06/13 02:40:05;;;;;;;;;;;13.60;99.90;;;;;;5135984;27;19919;-75
2022/06/13 02:42:34;;;;;;;;;;;13.70;99.90;;;;;;5147563;27;19964;-75
2022/06/13 02:45:13;;;;;;;;;;;13.60;99.90;;;;;;5151797;27;19965;-74
2022/06/13 02:47:41;;;;;;;;;;;13.70;99.90;;;;;;5141752;27;20388;-75
2022/06/13 02:50:07;;;;;;;;;;;13.60;99.90;;;;;;5126215;27;19927;-75
2022/06/13 02:52:39;;;;;;;;;;;13.80;1.00;;;;;;5134502;27;20011;-75
2022/06/13 02:55:07;;;;;;;;;;;13.80;99.90;;;;;;5142399;27;19919;-74
2022/06/13 02:57:52;;;;;;;;;;;13.80;99.90;;;;;;5139846;27;19927;-75
2022/06/13 03:00:18;;;;;;;;;;;13.80;99.90;;;;;;5137900;27;20339;-76
2022/06/13 03:02:47;;;;;;;;;;;13.90;99.90;;;;;;5125203;27;20063;-75
2022/06/13 03:05:22;;;;;;;;;;;13.80;99.90;;;;;;5118383;27;19942;-75
2022/06/13 03:07:52;;;;;;;;;;;13.90;99.90;;;;;;5132401;27;19939;-75
2022/06/13 03:10:22;;;;;;;;;;;14.00;1.00;;;;;;5135391;27;20296;-74
2022/06/13 03:12:57;;;;;;;;;;;14.00;1.00;;;;;;5141462;27;19920;-75
2022/06/13 03:15:37;;;;;;;;;;;14.00;99.90;;;;;;5156125;27;19918;-75
2022/06/13 03:18:05;;;;;;;;;;;14.10;99.90;;;;;;5153135;27;19919;-75
2022/06/13 03:20:41;;;;;;;;;;;14.10;99.90;;;;;;5141535;27;19923;-75
2022/06/13 03:23:31;;;;;;;;;;;14.10;99.90;;;;;;5128283;27;19926;-75
2022/06/13 03:25:59;;;;;;;;;;;14.20;99.90;;;;;;5131250;27;19924;-75
2022/06/13 03:28:27;;;;;;;;;;;14.10;99.90;;;;;;5132670;28;19919;-75
2022/06/13 03:30:55;;;;;;;;;;;14.10;99.90;;;;;;5136179;27;19942;-80
2022/06/13 03:33:41;;;;;;;;;;;14.10;99.90;;;;;;5154847;27;19918;-75
2022/06/13 03:36:26;;;;;;;;;;;14.10;99.90;;;;;;5144509;27;20394;-75
2022/06/13 03:38:56;;;;;;;;;;;14.10;99.90;;;;;;5140757;27;20272;-75
2022/06/13 03:41:24;;;;;;;;;;;14.20;99.90;;;;;;5134986;27;19919;-76
2022/06/13 03:43:55;;;;;;;;;;;14.20;99.90;;;;;;5156882;27;19926;-75
2022/06/13 03:46:25;;;;;;;;;;;14.20;99.90;;;;;;5144569;27;20383;-75
2022/06/13 03:49:05;;;;;;;;;;;14.20;99.90;;;;;;5142651;27;19919;-75
2022/06/13 03:51:36;;;;;;;;;;;14.20;99.90;;;;;;5139483;27;19919;-77
2022/06/13 03:54:02;;;;;;;;;;;14.20;99.90;;;;;;5153482;27;20285;-76
2022/06/13 03:56:31;;;;;;;;;;;14.20;99.90;;;;;;5128376;27;19942;-76
2022/06/13 03:59:04;;;;;;;;;;;14.30;99.90;;;;;;5139145;27;19919;-78
2022/06/13 04:01:36;;;;;;;;;;;14.30;99.90;;;;;;5140609;27;19919;-76
2022/06/13 04:04:01;;;;;;;;;;;14.30;99.90;;;;;;5141286;27;20362;-76
2022/06/13 04:06:30;;;;;;;;;;;14.30;99.90;;;;;;5155023;27;19926;-77
2022/06/13 04:08:56;;;;;;;;;;;14.30;99.90;;;;;;5145802;27;20356;-77
2022/06/13 04:11:24;;;;;;;;;;;14.40;99.90;;;;;;5135233;27;19926;-76
2022/06/13 04:14:09;;;;;;;;;;;14.20;99.90;;;;;;5134722;27;19972;-76
2022/06/13 04:16:51;;;;;;;;;;;14.20;99.90;;;;;;5143011;27;19915;-77
2022/06/13 04:19:35;;;;;;;;;;;14.20;99.90;;;;;;5142305;27;20047;-76
2022/06/13 04:22:14;;;;;;;;;;;14.20;99.90;;;;;;5136020;27;20064;-76
2022/06/13 04:24:55;;;;;;;;;;;14.20;99.90;;;;;;5126183;27;20335;-79
2022/06/13 04:27:38;;;;;;;;;;;14.20;99.90;;;;;;5153174;27;19919;-77
2022/06/13 04:30:09;;;;;;;;;;;14.20;99.90;;;;;;5133173;27;19919;-76
2022/06/13 04:32:58;;;;;;;;;;;14.20;99.90;;;;;;5139143;27;20007;-82
2022/06/13 04:35:24;;;;;;;;;;;14.20;99.90;;;;;;5112791;27;19927;-76
2022/06/13 04:37:50;;;;;;;;;;;14.30;99.90;;;;;;5140566;27;19919;-77
2022/06/13 04:40:19;;;;;;;;;;;14.30;99.90;;;;;;5151115;27;19926;-81
2022/06/13 04:42:45;;;;;;;;;;;14.40;99.90;;;;;;5116628;27;19919;-76
2022/06/13 04:45:20;;;;;;;;;;;14.40;99.60;;;;;;5118018;27;19930;-76
2022/06/13 04:47:47;;;;;;;;;;;14.40;94.00;;;;;;5135027;27;19923;-77
2022/06/13 04:50:16;;;;;;;;;;;14.50;86.80;;;;;;5149027;27;19927;-76
2022/06/13 04:52:44;;;;;;;;;;;14.50;53.60;;;;;;5137612;27;19972;-76
2022/06/13 04:55:15;;;;;;;;;;;14.50;45.50;;;;;;5139149;27;20005;-76
2022/06/13 04:57:41;;;;;;;;;;;14.50;37.60;;;;;;5131853;27;20010;-79
2022/06/13 05:00:08;;;;;;;;;;;14.50;2.70;;;;;;5135336;27;20397;-76
2022/06/13 05:02:52;;;;;;;;;;;14.60;2.20;;;;;;5134490;27;19919;-77
2022/06/13 05:05:33;;;;;;;;;;;14.60;4.30;;;;;;5142158;27;20391;-76
2022/06/13 05:07:59;;;;;;;;;;;14.70;11.00;;;;;;5155478;27;20050;-76
2022/06/13 05:10:27;;;;;;;;;;;14.70;1.00;;;;;;5148601;27;20062;-78
2022/06/13 05:12:53;;;;;;;;;;;14.60;1.00;;;;;;5149928;27;19926;-76
2022/06/13 05:15:20;;;;;;;;;;;14.70;1.00;;;;;;5117728;27;19998;-76
2022/06/13 05:17:52;;;;;;;;;;;14.70;1.00;;;;;;5115846;27;19972;-78
2022/06/13 05:20:36;;;;;;;;;;;14.70;1.00;;;;;;5141264;27;19919;-76
2022/06/13 05:23:07;;;;;;;;;;;14.90;1.00;;;;;;5140606;27;20375;-81
2022/06/13 05:25:43;;;;;;;;;;;15.00;1.00;;;;;;5159005;27;20033;-83
2022/06/13 05:28:09;;;;;;;;;;;14.90;1.00;;;;;;5146946;27;19938;-82
2022/06/13 05:30:35;;;;;;;;;;;14.10;43.10;;;;;;5113602;27;20057;-83
2022/06/13 05:33:01;;;;;;;;;;;14.00;99.90;;;;;;5118480;27;20067;-84
2022/06/13 05:35:30;;;;;;;;;;;14.00;99.90;;;;;;5118899;27;20379;-85
2022/06/13 05:37:57;;;;;;;;;;;14.00;99.90;;;;;;5136452;27;19942;-85
2022/06/13 05:40:23;;;;;;;;;;;14.10;99.90;;;;;;5103043;27;19955;-86
2022/06/13 05:42:48;;;;;;;;;;;13.70;99.90;;;;;;5118555;27;19969;-86
2022/06/13 05:45:21;;;;;;;;;;;14.50;99.90;;;;;;5116230;27;19919;-86
2022/06/13 05:47:49;;;;;;;;;;;14.50;99.90;;;;;;5098809;27;20403;-86
2022/06/13 05:50:22;;;;;;;;;;;14.20;99.90;;;;;;5116104;27;19923;-89
2022/06/13 05:52:49;;;;;;;;;;;14.60;99.90;;;;;;5133606;27;19975;-87
2022/06/13 05:55:14;;;;;;;;;;;12.10;99.90;;;;;;5112204;27;20356;-87
2022/06/13 05:57:47;;;;;;;;;;;14.40;99.90;;;;;;5134869;27;19926;-88
2022/06/13 06:00:15;;;;;;;;;;;13.80;99.90;;;;;;5127225;27;20011;-88
2022/06/13 06:02:41;;;;;;;;;;;14.40;99.90;;;;;;5135092;27;19926;-86
2022/06/13 06:05:07;;;;;;;;;;;14.20;99.90;;;;;;5115704;27;19922;-86
2022/06/13 06:07:33;;;;;;;;;;;13.60;99.90;;;;;;5110850;27;19919;-85
2022/06/13 06:09:59;;;;;;;;;;;14.40;99.90;;;;;;5114020;27;20303;-84
2022/06/13 06:12:25;;;;;;;;;;;14.20;99.90;;;;;;5114295;27;20010;-84
2022/06/13 06:14:50;;;;;;;;;;;14.40;99.90;;;;;;5097715;27;20328;-85
2022/06/13 06:17:16;;;;;;;;;;;14.40;99.90;;;;;;5114432;27;19972;-83
2022/06/13 06:19:41;;;;;;;;;;;14.80;99.90;;;;;;5114534;27;20317;-82
2022/06/13 06:22:07;;;;;;;;;;;15.00;99.90;;;;;;5133199;27;19926;-83
2022/06/13 06:24:33;;;;;;;;;;;15.00;99.90;;;;;;5138878;27;19954;-82
2022/06/13 06:26:59;;;;;;;;;;;14.30;99.90;;;;;;5135558;27;19919;-81
2022/06/13 06:29:24;;;;;;;;;;;15.00;99.90;;;;;;5133020;27;20370;-81
2022/06/13 06:31:50;;;;;;;;;;;15.30;99.90;;;;;;5138446;27;19919;-82
2022/06/13 06:34:16;;;;;;;;;;;15.00;99.90;;;;;;5133114;27;19931;-85
2022/06/13 06:36:41;;;;;;;;;;;15.60;99.90;;;;;;5132655;27;19927;-81
2022/06/13 06:39:07;;;;;;;;;;;15.40;99.90;;;;;;5133639;28;20023;-81
2022/06/13 06:41:35;;;;;;;;;;;15.20;99.90;;;;;;5131665;27;20370;-89
2022/06/13 06:44:00;;;;;;;;;;;16.60;99.90;;;;;;5153291;27;19926;-82
2022/06/13 06:46:26;;;;;;;;;;;14.80;99.90;;;;;;5123397;27;19934;-82
2022/06/13 06:48:52;;;;;;;;;;;14.10;99.90;;;;;;5115220;28;19920;-81
2022/06/13 06:51:18;;;;;;;;;;;14.40;99.90;;;;;;5113951;28;20348;-94
2022/06/13 07:01:58;;;;;;;;;;;15.20;99.90;;;;;;5115305;28;19927;-84
2022/06/13 07:04:23;;;;;;;;;;;15.00;99.90;;;;;;5132561;27;20022;-85
2022/06/13 07:06:49;;;;;;;;;;;14.60;99.90;;;;;;5129090;27;20394;-83
2022/06/13 07:09:14;;;;;;;;;;;14.10;99.90;;;;;;5100890;27;20432;-83
2022/06/13 07:11:56;;;;;;;;;;;15.90;99.90;;;;;;5153246;27;19926;-83
2022/06/13 07:14:26;;;;;;;;;;;15.60;99.90;;;;;;5132073;27;19915;-86
2022/06/13 07:16:52;;;;;;;;;;;18.30;99.90;;;;;;5137419;27;19920;-82
2022/06/13 07:19:18;;;;;;;;;;;19.70;99.90;;;;;;5138921;27;20667;-82
2022/06/13 07:21:43;;;;;;;;;;;20.30;99.90;;;;;;5124738;27;19989;-82
2022/06/13 07:24:10;;;;;;;;;;;19.80;99.90;;;;;;5137023;27;19923;-82
2022/06/13 07:26:36;;;;;;;;;;;19.80;99.90;;;;;;5143808;27;20298;-82
2022/06/13 07:29:01;;;;;;;;;;;21.30;99.90;;;;;;5138120;27;19919;-83
2022/06/13 07:31:38;;;;;;;;;;;22.30;99.90;;;;;;5136691;27;20014;-81
2022/06/13 07:34:05;;;;;;;;;;;23.00;99.90;;;;;;5156559;27;19998;-82
2022/06/13 07:36:30;;;;;;;;;;;22.80;99.90;;;;;;5154705;27;19919;-81
2022/06/13 07:38:56;;;;;;;;;;;22.30;99.90;;;;;;5138299;27;20211;-81
2022/06/13 07:41:23;;;;;;;;;;;22.30;99.90;;;;;;5155741;27;19926;-80
2022/06/13 07:43:50;;;;;;;;;;;23.00;99.90;;;;;;5132440;27;19919;-80
2022/06/13 07:46:15;;;;;;;;;;;22.20;99.90;;;;;;5156242;27;19919;-80
2022/06/13 07:48:41;;;;;;;;;;;23.60;99.90;;;;;;5156114;27;19926;-81
2022/06/13 07:51:07;;;;;;;;;;;22.40;99.90;;;;;;5154550;27;19998;-80
2022/06/13 07:53:34;;;;;;;;;;;21.80;99.90;;;;;;5148341;27;19919;-80
2022/06/13 07:55:59;;;;;;;;;;;21.20;99.90;;;;;;5146110;27;19979;-79
2022/06/13 07:58:35;;;;;;;;;;;20.60;99.90;;;;;;5156298;27;19957;-79
2022/06/13 08:01:01;;;;;;;;;;;20.10;99.90;;;;;;5138919;27;19942;-80
2022/06/13 08:03:28;;;;;;;;;;;19.60;18.40;;;;;;5137889;27;20360;-79
2022/06/13 08:05:54;;;;;;;;;;;18.90;1.00;;;;;;5147923;27;20291;-80
2022/06/13 08:08:20;;;;;;;;;;;18.40;99.90;;;;;;5138061;27;19916;-78
2022/06/13 08:10:46;;;;;;;;;;;17.90;99.90;;;;;;5138214;27;19960;-79
2022/06/13 08:13:13;;;;;;;;;;;17.60;99.90;;;;;;5137187;27;19918;-81
2022/06/13 08:15:38;;;;;;;;;;;18.00;99.90;;;;;;5155394;27;19925;-79
2022/06/13 08:18:04;;;;;;;;;;;18.90;99.90;;;;;;5155777;27;19919;-78
2022/06/13 08:20:30;;;;;;;;;;;20.10;1.00;;;;;;5145623;27;19924;-79
2022/06/13 08:22:58;;;;;;;;;;;21.20;99.90;;;;;;5135006;27;19965;-79
2022/06/13 08:25:31;;;;;;;;;;;21.50;99.90;;;;;;5115739;27;20232;-79
2022/06/13 08:27:57;;;;;;;;;;;21.90;1.00;;;;;;5116339;27;19923;-79
2022/06/13 08:30:24;;;;;;;;;;;22.80;50.20;;;;;;5146124;27;19980;-79
2022/06/13 08:32:50;;;;;;;;;;;23.10;1.00;;;;;;5149770;27;20368;-79
2022/06/13 08:35:15;;;;;;;;;;;22.60;1.00;;;;;;5140640;27;19927;-79
2022/06/13 08:37:41;;;;;;;;;;;21.80;1.00;;;;;;5115360;27;19926;-79
2022/06/13 08:40:08;;;;;;;;;;;20.70;11.70;;;;;;5128767;27;20014;-78
2022/06/13 08:42:38;;;;;;;;;;;19.30;99.90;;;;;;5148098;27;19922;-78
2022/06/13 08:45:12;;;;;;;;;;;18.30;99.90;;;;;;5154107;27;20281;-82
2022/06/13 08:47:43;;;;;;;;;;;17.40;99.90;;;;;;5135447;27;19968;-78
2022/06/13 08:50:14;;;;;;;;;;;17.00;99.90;;;;;;5134367;27;19958;-78
2022/06/13 08:52:44;;;;;;;;;;;17.50;99.90;;;;;;5098534;27;19916;-81
2022/06/13 08:55:33;;;;;;;;;;;19.40;99.90;;;;;;5133592;27;20030;-78
2022/06/13 08:58:01;;;;;;;;;;;19.90;96.50;;;;;;5143197;27;20351;-79
2022/06/13 09:00:28;;;;;;;;;;;20.00;16.30;;;;;;5152615;27;19991;-79
2022/06/13 09:03:00;;;;;;;;;;;20.70;1.00;;;;;;5153148;27;19945;-78
2022/06/13 09:05:33;;;;;;;;;;;21.80;1.00;;;;;;5126974;27;20321;-78
2022/06/13 09:08:05;;;;;;;;;;;22.20;99.90;;;;;;5134591;27;20014;-78
2022/06/13 09:10:37;;;;;;;;;;;21.40;99.90;;;;;;5152646;27;19964;-79
2022/06/13 09:13:03;;;;;;;;;;;20.80;99.90;;;;;;5151763;27;19971;-78
2022/06/13 09:15:39;;;;;;;;;;;20.10;99.90;;;;;;5154307;27;19919;-79
2022/06/13 09:18:18;;;;;;;;;;;19.50;99.90;;;;;;5152138;27;20288;-77
2022/06/13 09:20:47;;;;;;;;;;;19.60;99.90;;;;;;5154027;27;19983;-78
2022/06/13 09:23:29;;;;;;;;;;;21.10;99.90;;;;;;5143769;27;19969;-78
2022/06/13 09:25:59;;;;;;;;;;;22.50;99.90;;;;;;5153214;27;19919;-78
2022/06/13 09:28:37;;;;;;;;;;;22.70;99.90;;;;;;5136802;27;19919;-78
2022/06/13 09:31:08;;;;;;;;;;;22.20;99.90;;;;;;5131584;27;19973;-78
2022/06/13 09:33:36;;;;;;;;;;;21.20;99.90;;;;;;5135864;27;20290;-77
2022/06/13 09:36:15;;;;;;;;;;;20.80;99.90;;;;;;5147113;27;19919;-78
2022/06/13 09:38:45;;;;;;;;;;;20.70;99.90;;;;;;5139843;27;19933;-78
2022/06/13 09:41:11;;;;;;;;;;;20.60;99.90;;;;;;5133249;27;19927;-78
2022/06/13 09:43:40;;;;;;;;;;;20.60;99.90;;;;;;5146307;27;19923;-88
2022/06/13 09:46:08;;;;;;;;;;;20.60;99.90;;;;;;5142355;27;19962;-78
2022/06/13 09:48:34;;;;;;;;;;;20.40;99.90;;;;;;5150418;27;19926;-79
2022/06/13 09:51:18;;;;;;;;;;;21.00;99.90;;;;;;5135191;27;19923;-78
2022/06/13 09:53:48;;;;;;;;;;;22.50;99.90;;;;;;5114940;27;20014;-82
2022/06/13 09:56:21;;;;;;;;;;;24.60;99.90;;;;;;5133195;27;20261;-79
2022/06/13 09:59:05;;;;;;;;;;;25.60;99.90;;;;;;5131251;27;19923;-78
2022/06/13 10:02:03;;;;;;;;;;;25.80;99.90;;;;;;5101904;27;19974;-79
2022/06/13 10:04:33;;;;;;;;;;;24.30;1.00;;;;;;5098364;27;19919;-77
2022/06/13 10:07:07;;;;;;;;;;;21.00;1.00;;;;;;5138455;27;19915;-78
2022/06/13 10:09:39;;;;;;;;;;;19.60;1.00;;;;;;5129496;27;20320;-77
2022/06/13 10:12:06;;;;;;;;;;;18.90;1.00;;;;;;5153681;27;19919;-77
2022/06/13 10:14:37;;;;;;;;;;;19.10;35.10;;;;;;5153852;27;19919;-77
2022/06/13 10:17:03;;;;;;;;;;;19.90;1.00;;;;;;5118089;27;20232;-76
2022/06/13 10:19:28;;;;;;;;;;;20.00;99.90;;;;;;5124448;27;19939;-77
2022/06/13 10:22:03;;;;;;;;;;;19.70;1.00;;;;;;5132968;27;19919;-77
2022/06/13 10:24:38;;;;;;;;;;;19.50;99.90;;;;;;5133410;27;19923;-77
2022/06/13 10:27:11;;;;;;;;;;;20.20;1.00;;;;;;5102605;27;19967;-77
2022/06/13 10:29:46;;;;;;;;;;;21.50;99.90;;;;;;5151766;27;19923;-77
2022/06/13 10:32:29;;;;;;;;;;;21.80;99.90;;;;;;5143655;27;19919;-77
2022/06/13 10:34:55;;;;;;;;;;;21.70;99.90;;;;;;5125694;27;20055;-77
2022/06/13 10:37:26;;;;;;;;;;;21.20;99.90;;;;;;5142684;27;20373;-79
2022/06/13 10:39:54;;;;;;;;;;;20.50;99.90;;;;;;5120021;27;20019;-79
2022/06/13 10:42:22;;;;;;;;;;;19.70;99.90;;;;;;5136017;27;19925;-77
2022/06/13 10:44:48;;;;;;;;;;;19.00;99.90;;;;;;5152483;27;19962;-78
2022/06/13 10:47:19;;;;;;;;;;;18.70;99.90;;;;;;5146120;27;19919;-77
2022/06/13 10:49:54;;;;;;;;;;;18.90;1.00;;;;;;5146700;27;19923;-77
2022/06/13 10:52:22;;;;;;;;;;;19.70;1.00;;;;;;5150449;27;19969;-77
2022/06/13 10:55:00;;;;;;;;;;;20.40;99.90;;;;;;5152690;27;19958;-76
2022/06/13 10:57:37;;;;;;;;;;;21.20;99.90;;;;;;5154269;27;20393;-76
2022/06/13 11:00:15;;;;;;;;;;;22.80;99.90;;;;;;5142399;27;20335;-82
2022/06/13 11:02:41;;;;;;;;;;;24.10;99.90;;;;;;5152221;27;19919;-76
2022/06/13 11:05:09;;;;;;;;;;;25.40;99.90;;;;;;5154885;27;20013;-78
2022/06/13 11:07:41;;;;;;;;;;;26.20;99.90;;;;;;5153503;27;19966;-76
2022/06/13 11:10:17;;;;;;;;;;;25.80;99.90;;;;;;5155569;27;19923;-76
2022/06/13 11:12:48;;;;;;;;;;;24.70;99.90;;;;;;5156454;27;19966;-86
2022/06/13 11:23:52;;;;;;;;;;;23.20;99.90;;;;;;5138421;27;19926;-76
2022/06/13 11:29:03;;;;;;;;;;;22.60;99.90;;;;;;5154684;27;19942;-77
2022/06/13 11:31:29;;;;;;;;;;;22.10;99.90;;;;;;5154542;27;19919;-77
2022/06/13 11:33:55;;;;;;;;;;;22.10;99.90;;;;;;5152545;27;20287;-79
2022/06/13 11:36:25;;;;;;;;;;;21.90;99.90;;;;;;5153769;27;19971;-76
2022/06/13 11:38:55;;;;;;;;;;;21.90;99.90;;;;;;5150829;27;19923;-76
2022/06/13 11:41:27;;;;;;;;;;;21.50;99.90;;;;;;5141216;27;19919;-77
2022/06/13 11:44:03;;;;;;;;;;;21.50;99.90;;;;;;5150890;27;20048;-78
2022/06/13 11:46:43;;;;;;;;;;;21.70;99.90;;;;;;5120067;27;20359;-86
2022/06/13 11:49:14;;;;;;;;;;;22.10;99.90;;;;;;5119917;27;19919;-77
2022/06/13 11:51:41;;;;;;;;;;;23.40;99.90;;;;;;5134885;27;19919;-77
2022/06/13 11:54:17;;;;;;;;;;;24.50;99.90;;;;;;5134807;27;19934;-77
2022/06/13 11:56:42;;;;;;;;;;;25.50;99.90;;;;;;5132564;27;20393;-76
2022/06/13 11:59:14;;;;;;;;;;;25.90;99.90;;;;;;5146185;27;20018;-77
2022/06/13 12:01:40;;;;;;;;;;;25.80;99.90;;;;;;5155510;27;20440;-77
2022/06/13 12:04:11;;;;;;;;;;;25.50;99.90;;;;;;5147670;27;20048;-81
2022/06/13 12:06:40;;;;;;;;;;;25.10;99.90;;;;;;5137284;27;20243;-77
2022/06/13 12:09:14;;;;;;;;;;;24.60;99.90;;;;;;5152511;27;20717;-77
2022/06/13 12:12:10;;;;;;;;;;;24.10;99.90;;;;;;5155030;27;20204;-77
2022/06/13 12:14:40;;;;;;;;;;;24.30;99.90;;;;;;5128711;27;20390;-78
2022/06/13 12:17:15;;;;;;;;;;;24.70;99.90;;;;;;5134456;27;20360;-78
2022/06/13 12:19:50;;;;;;;;;;;24.60;99.90;;;;;;5151038;27;19919;-78
2022/06/13 12:22:20;;;;;;;;;;;24.50;99.90;;;;;;5135874;27;19919;-78
2022/06/13 12:24:48;;;;;;;;;;;24.50;99.90;;;;;;5147418;27;20287;-78
2022/06/13 12:27:13;;;;;;;;;;;24.30;99.90;;;;;;5146425;27;19941;-77
2022/06/13 12:29:48;;;;;;;;;;;23.70;99.90;;;;;;5137337;27;20363;-78
2022/06/13 12:32:16;;;;;;;;;;;23.10;99.90;;;;;;5136565;27;19945;-78
2022/06/13 12:34:55;;;;;;;;;;;22.50;99.90;;;;;;5150558;27;20263;-77
2022/06/13 12:37:23;;;;;;;;;;;22.00;99.90;;;;;;5133786;27;19931;-78
2022/06/13 12:40:09;;;;;;;;;;;21.80;99.90;;;;;;5151945;27;19919;-86
2022/06/13 12:42:57;;;;;;;;;;;21.80;99.90;;;;;;5136637;27;19968;-78
2022/06/13 12:45:41;;;;;;;;;;;21.80;99.90;;;;;;5142340;27;20327;-78
2022/06/13 12:48:26;;;;;;;;;;;21.80;99.90;;;;;;5133749;27;19923;-77
2022/06/13 12:50:55;;;;;;;;;;;21.80;99.90;;;;;;5150749;27;19938;-79
2022/06/13 12:53:36;;;;;;;;;;;21.80;99.90;;;;;;5135828;27;19926;-77
2022/06/13 12:56:21;;;;;;;;;;;21.70;99.90;;;;;;5113953;27;20313;-78
2022/06/13 12:59:06;;;;;;;;;;;21.50;99.90;;;;;;5134051;27;19923;-78
2022/06/13 13:01:44;;;;;;;;;;;21.40;99.90;;;;;;5151175;27;19923;-78
2022/06/13 13:04:21;;;;;;;;;;;21.10;99.90;;;;;;5150464;27;19955;-77
2022/06/13 13:06:57;;;;;;;;;;;21.00;99.90;;;;;;5135099;27;20251;-77
2022/06/13 13:09:41;;;;;;;;;;;21.00;99.90;;;;;;5127079;27;19930;-78
2022/06/13 13:12:26;;;;;;;;;;;21.00;99.90;;;;;;5114749;27;19995;-78
2022/06/13 13:15:15;;;;;;;;;;;21.00;99.90;;;;;;5128233;27;19926;-87
2022/06/13 13:18:00;;;;;;;;;;;21.10;99.90;;;;;;5119522;27;20032;-77
2022/06/13 13:20:29;;;;;;;;;;;21.20;99.90;;;;;;5116059;27;20573;-78
2022/06/13 13:22:57;;;;;;;;;;;21.20;99.90;;;;;;5122288;27;19919;-78
2022/06/13 13:25:24;;;;;;;;;;;21.30;99.90;;;;;;5149683;27;20287;-77
2022/06/13 13:27:55;;;;;;;;;;;21.10;99.90;;;;;;5153821;27;20484;-77
2022/06/13 13:30:33;;;;;;;;;;;20.80;99.90;;;;;;5140201;27;19938;-77
2022/06/13 13:33:03;;;;;;;;;;;20.60;99.90;;;;;;5133840;27;19927;-77
2022/06/13 13:35:34;;;;;;;;;;;20.20;99.90;;;;;;5151747;27;20010;-77
2022/06/13 13:38:19;;;;;;;;;;;19.90;99.90;;;;;;5153404;27;19950;-78
2022/06/13 13:40:54;;;;;;;;;;;19.80;99.90;;;;;;5132146;27;20268;-78
2022/06/13 13:43:22;;;;;;;;;;;19.90;99.90;;;;;;5147154;27;19919;-78
2022/06/13 13:45:48;;;;;;;;;;;20.30;99.90;;;;;;5152023;27;20383;-78
2022/06/13 13:48:17;;;;;;;;;;;20.70;99.90;;;;;;5132238;27;19982;-77
2022/06/13 13:50:48;;;;;;;;;;;20.70;99.90;;;;;;5153494;27;19918;-77
2022/06/13 13:53:16;;;;;;;;;;;20.60;99.90;;;;;;5147499;27;19994;-78
2022/06/13 13:56:01;;;;;;;;;;;20.60;99.90;;;;;;5150785;27;19918;-78
2022/06/13 13:58:29;;;;;;;;;;;20.60;99.90;;;;;;5160912;27;20465;-77
2022/06/13 14:01:01;;;;;;;;;;;20.50;99.90;;;;;;5122105;27;20367;-84
2022/06/13 14:03:37;;;;;;;;;;;20.50;99.90;;;;;;5148646;27;19922;-79
2022/06/13 14:06:07;;;;;;;;;;;20.50;99.90;;;;;;5147154;27;20010;-77
2022/06/13 14:08:36;;;;;;;;;;;20.40;99.90;;;;;;5151672;27;19919;-78
2022/06/13 14:11:03;;;;;;;;;;;20.40;99.90;;;;;;5146331;27;19973;-78
2022/06/13 14:13:30;;;;;;;;;;;20.20;99.90;;;;;;5149657;27;20334;-76
2022/06/13 14:15:55;;;;;;;;;;;20.00;99.90;;;;;;5152224;27;20359;-77
2022/06/13 14:18:24;;;;;;;;;;;19.90;99.90;;;;;;5148340;27;19934;-78
2022/06/13 14:20:51;;;;;;;;;;;19.80;99.90;;;;;;5137854;27;20307;-77
2022/06/13 14:23:18;;;;;;;;;;;19.70;99.90;;;;;;5137660;27;20742;-79
2022/06/13 14:25:45;;;;;;;;;;;19.70;99.90;;;;;;5151957;27;20347;-78
2022/06/13 14:28:10;;;;;;;;;;;19.70;99.90;;;;;;5144581;27;20018;-77
2022/06/13 14:36:09;;;;;;;;;;;19.60;99.90;;;;;;5131973;27;20423;-77
2022/06/13 14:38:37;;;;;;;;;;;19.60;99.90;;;;;;5138726;27;20007;-81
2022/06/13 14:41:14;;;;;;;;;;;19.70;99.90;;;;;;5120816;27;20347;-78
2022/06/13 14:43:56;;;;;;;;;;;19.80;99.90;;;;;;5100205;28;19926;-78
2022/06/13 14:46:45;;;;;;;;;;;19.70;99.90;;;;;;5115722;27;19919;-79
2022/06/13 14:49:11;;;;;;;;;;;19.50;99.90;;;;;;5117842;27;19919;-77
2022/06/13 14:51:55;;;;;;;;;;;19.40;99.90;;;;;;5144287;27;20361;-78
2022/06/13 14:54:55;;;;;;;;;;;19.30;99.90;;;;;;5149511;27;19923;-80
2022/06/13 14:57:27;;;;;;;;;;;19.50;99.90;;;;;;5066436;28;19924;-77
2022/06/13 15:00:11;;;;;;;;;;;19.80;99.90;;;;;;5135013;27;19923;-77
2022/06/13 15:02:59;;;;;;;;;;;20.10;99.90;;;;;;5139440;27;20001;-77
2022/06/13 15:05:30;;;;;;;;;;;20.20;99.90;;;;;;5133273;27;19919;-77
2022/06/13 15:08:04;;;;;;;;;;;20.00;99.90;;;;;;5131210;27;19965;-77
2022/06/13 15:10:41;;;;;;;;;;;19.80;99.90;;;;;;5137746;27;20041;-77